Langdon Bay, United Kingdom
Current Conditions -  °F | °C
As of 8:50 AM on Monday 22 Dec 2014 (Local Time) from EGMD Reporting Station
Light Rain Light Rain  
Wind Chill: 12°   Ceiling: 500
Heat Index: 12°   Visibility: 2.8mi
Dew Point: 12°   Wind: 26mph
Humidity: 100%   Direction: 240°WSW
Pressure: 30.12"   Gusts: NA
Location:  51.13°N, 1.35°E
Report Text: EGMD 220850Z 24023KT 4500 -RADZ BKN005 12/12 Q1020
Loading
Personal Weather Stations






























Interactive Weather Map New forecast layout! Learn more

10-Day Weather Forecast

Advertisements
Track Severe Weather on mobile